createdAt,value
2018-07-24T04:00:38.788Z,22.50
2018-07-24T04:01:38.741Z,28.12
2018-07-24T04:02:38.726Z,28.12
2018-07-24T04:03:38.738Z,28.12
2018-07-24T04:04:38.704Z,28.12
2018-07-24T04:05:38.689Z,28.12
2018-07-24T04:06:38.692Z,28.12
2018-07-24T04:07:38.669Z,33.75
2018-07-24T04:08:38.674Z,33.75
2018-07-24T04:09:38.651Z,33.75
2018-07-24T04:10:38.632Z,33.75
2018-07-24T04:11:38.621Z,33.75
2018-07-24T04:12:38.623Z,39.38
2018-07-24T04:13:38.624Z,39.38
2018-07-24T04:14:38.585Z,39.38
2018-07-24T04:15:38.577Z,39.38
2018-07-24T04:16:38.574Z,39.38
2018-07-24T04:17:38.555Z,39.38
2018-07-24T04:18:38.631Z,45.00
2018-07-24T04:19:38.532Z,45.00
2018-07-24T04:20:38.522Z,45.00
2018-07-24T04:21:38.507Z,45.00
2018-07-24T04:22:38.498Z,45.00
2018-07-24T04:23:38.505Z,50.62
2018-07-24T04:24:38.481Z,50.62
2018-07-24T04:25:38.468Z,50.62
2018-07-24T04:26:38.454Z,50.62
2018-07-24T04:27:38.440Z,50.62
2018-07-24T04:28:38.432Z,56.25
2018-07-24T04:29:38.430Z,56.25
2018-07-24T04:30:38.436Z,56.25
2018-07-24T04:31:38.415Z,56.25
2018-07-24T04:32:38.381Z,56.25
2018-07-24T04:33:38.374Z,61.88
2018-07-24T04:34:38.377Z,61.88
2018-07-24T04:35:38.367Z,61.88
2018-07-24T04:36:38.344Z,61.88
2018-07-24T04:37:38.330Z,61.88
2018-07-24T04:38:38.319Z,67.50
2018-07-24T04:39:38.318Z,67.50
2018-07-24T04:40:38.295Z,67.50
2018-07-24T04:41:38.289Z,67.50
2018-07-24T04:42:38.930Z,67.50
2018-07-24T04:43:38.268Z,73.12
2018-07-24T04:44:38.343Z,73.12
2018-07-24T04:45:38.237Z,73.12
2018-07-24T04:46:38.243Z,73.12
2018-07-24T04:47:38.214Z,73.12
2018-07-24T04:48:38.202Z,73.12
2018-07-24T04:49:38.212Z,78.75
2018-07-24T04:50:38.181Z,78.75
2018-07-24T04:51:38.174Z,78.75
2018-07-24T04:52:38.176Z,78.75
2018-07-24T04:53:38.147Z,78.75
2018-07-24T04:54:38.160Z,84.38
2018-07-24T04:55:38.128Z,84.38
2018-07-24T04:56:38.133Z,84.38
2018-07-24T04:57:38.103Z,84.38
2018-07-24T04:58:38.106Z,90.00
2018-07-24T04:59:38.124Z,90.00
2018-07-24T05:00:38.066Z,90.00
2018-07-24T05:01:38.056Z,90.00
2018-07-24T05:02:38.133Z,95.62
2018-07-24T05:03:38.040Z,95.62
2018-07-24T05:04:38.024Z,95.62
2018-07-24T05:05:38.031Z,95.62
2018-07-24T05:06:38.008Z,95.62
2018-07-24T05:07:38.018Z,101.25
2018-07-24T05:08:37.983Z,101.25
2018-07-24T05:09:38.025Z,101.25
2018-07-24T05:10:37.979Z,101.25
2018-07-24T05:11:37.946Z,101.25
2018-07-24T05:12:37.937Z,106.88
2018-07-24T05:13:37.928Z,106.88
2018-07-24T05:14:37.931Z,106.88
2018-07-24T05:15:37.915Z,106.88
2018-07-24T05:16:37.952Z,112.50
2018-07-24T05:17:37.883Z,112.50
2018-07-24T05:18:37.867Z,112.50
2018-07-24T05:19:37.874Z,112.50
2018-07-24T05:20:37.865Z,112.50
2018-07-24T05:21:37.835Z,118.12
2018-07-24T05:22:37.818Z,118.12
2018-07-24T05:23:37.845Z,118.12
2018-07-24T05:24:37.802Z,118.12
2018-07-24T05:25:37.826Z,118.12
2018-07-24T05:26:37.779Z,123.75
2018-07-24T05:27:37.762Z,123.75
2018-07-24T05:28:37.758Z,123.75
2018-07-24T05:29:37.744Z,123.75
2018-07-24T05:30:37.751Z,123.75
2018-07-24T05:31:37.719Z,129.38
2018-07-24T05:32:37.709Z,129.38
2018-07-24T05:33:37.705Z,129.38
2018-07-24T05:34:37.684Z,129.38
2018-07-24T05:35:37.690Z,129.38
2018-07-24T05:36:37.676Z,135.00
2018-07-24T05:37:37.656Z,135.00
2018-07-24T05:38:37.649Z,135.00
2018-07-24T05:39:37.634Z,135.00
2018-07-24T05:40:37.634Z,135.00
2018-07-24T05:41:37.609Z,135.00
2018-07-24T05:42:37.597Z,140.62
2018-07-24T05:43:37.610Z,140.62
2018-07-24T05:44:37.581Z,140.62
2018-07-24T05:45:37.591Z,140.62
2018-07-24T05:46:37.552Z,140.62
2018-07-24T05:47:37.544Z,146.25
2018-07-24T05:48:37.618Z,146.25
2018-07-24T05:49:37.521Z,146.25
2018-07-24T05:50:37.547Z,146.25
2018-07-24T05:51:37.497Z,146.25
2018-07-24T05:52:37.488Z,151.88
2018-07-24T05:53:37.471Z,151.88
2018-07-24T05:54:37.464Z,151.88
2018-07-24T05:55:37.459Z,151.88
2018-07-24T05:56:37.462Z,151.88
2018-07-24T05:57:37.443Z,157.50
2018-07-24T05:58:37.427Z,157.50
2018-07-24T05:59:37.404Z,157.50
2018-07-24T06:00:37.399Z,157.50
2018-07-24T06:01:37.406Z,163.12
2018-07-24T06:02:37.379Z,163.12
2018-07-24T06:03:37.364Z,168.75
2018-07-24T06:04:37.359Z,180.00
2018-07-24T06:05:37.339Z,241.88
2018-07-24T06:06:37.341Z,326.25
2018-07-24T06:07:37.315Z,348.75
2018-07-24T06:08:37.311Z,354.38
2018-07-24T06:09:37.290Z,354.38
2018-07-24T06:10:37.285Z,360.00
2018-07-24T06:11:37.290Z,365.62
2018-07-24T06:12:37.259Z,371.25
2018-07-24T06:13:37.245Z,376.88
2018-07-24T06:14:37.238Z,382.50
2018-07-24T06:15:37.229Z,382.50
2018-07-24T06:16:37.251Z,388.12
2018-07-24T06:17:37.201Z,388.12
2018-07-24T06:18:37.236Z,393.75
2018-07-24T06:19:37.175Z,393.75
2018-07-24T06:20:37.173Z,399.38
2018-07-24T06:21:37.180Z,405.00
2018-07-24T06:22:37.144Z,410.62
2018-07-24T06:23:37.180Z,416.25
2018-07-24T06:24:37.128Z,416.25
2018-07-24T06:25:37.124Z,421.88
2018-07-24T06:26:37.119Z,427.50
2018-07-24T06:27:37.090Z,427.50
2018-07-24T06:28:37.083Z,433.12
2018-07-24T06:29:37.077Z,438.75
2018-07-24T06:30:37.056Z,438.75
2018-07-24T06:31:37.077Z,438.75
2018-07-24T06:32:37.050Z,444.38
2018-07-24T06:33:37.030Z,450.00
2018-07-24T06:34:37.010Z,444.38
2018-07-24T06:35:37.015Z,450.00
2018-07-24T06:36:37.012Z,450.00
2018-07-24T06:37:36.983Z,450.00
2018-07-24T06:38:36.970Z,450.00
2018-07-24T06:39:37.022Z,455.62
2018-07-24T06:40:36.947Z,455.62
2018-07-24T06:41:36.935Z,461.25
2018-07-24T06:42:36.941Z,461.25
2018-07-24T06:43:36.915Z,461.25
2018-07-24T06:44:37.021Z,466.88
2018-07-24T06:45:36.888Z,472.50
2018-07-24T06:46:36.886Z,472.50
2018-07-24T06:47:36.894Z,483.75
2018-07-24T06:48:36.856Z,489.38
2018-07-24T06:49:36.842Z,495.00
2018-07-24T06:50:36.840Z,495.00
2018-07-24T06:51:36.906Z,506.25
2018-07-24T06:52:36.920Z,511.88
2018-07-24T06:53:36.938Z,528.75
2018-07-24T06:54:37.670Z,540.00
2018-07-24T06:55:36.778Z,540.00
2018-07-24T06:56:36.842Z,551.25
2018-07-24T06:57:36.785Z,556.88
2018-07-24T06:58:36.746Z,562.50
2018-07-24T06:59:36.735Z,562.50
2018-07-24T07:00:36.725Z,568.12
2018-07-24T07:01:36.716Z,590.62
2018-07-24T07:02:36.717Z,888.75
2018-07-24T07:03:36.704Z,1822.50
2018-07-24T07:04:36.683Z,2266.88
2018-07-24T07:05:36.673Z,2345.62
2018-07-24T07:06:36.663Z,2385.00
2018-07-24T07:07:36.679Z,2418.75
2018-07-24T07:08:36.632Z,2458.12
2018-07-24T07:09:36.624Z,2503.12
2018-07-24T07:10:36.611Z,2503.12
2018-07-24T07:11:36.601Z,2542.50
2018-07-24T07:12:36.605Z,2075.62
2018-07-24T07:13:36.685Z,1288.12
2018-07-24T07:14:36.568Z,911.25
2018-07-24T07:15:36.556Z,714.38
2018-07-24T07:16:36.548Z,703.12
2018-07-24T07:17:36.559Z,697.50
2018-07-24T07:18:36.526Z,697.50
2018-07-24T07:19:36.511Z,725.62
2018-07-24T07:20:36.567Z,1260.00
2018-07-24T07:21:36.493Z,2469.38
2018-07-24T07:22:36.497Z,2880.00
2018-07-24T07:23:36.474Z,2908.12
2018-07-24T07:24:36.455Z,2930.62
2018-07-24T07:25:36.463Z,2958.75
2018-07-24T07:26:36.437Z,2424.38
2018-07-24T07:27:36.442Z,1316.25
2018-07-24T07:28:36.419Z,793.12
2018-07-24T07:29:36.416Z,770.62
2018-07-24T07:30:36.397Z,765.00
2018-07-24T07:31:36.383Z,765.00
2018-07-24T07:32:36.409Z,860.62
2018-07-24T07:33:36.414Z,826.88
2018-07-24T07:34:36.353Z,765.00
2018-07-24T07:35:36.338Z,753.75
2018-07-24T07:36:36.340Z,748.12
2018-07-24T07:37:36.319Z,753.75
2018-07-24T07:38:36.335Z,753.75
2018-07-24T07:39:36.291Z,753.75
2018-07-24T07:40:36.284Z,759.38
2018-07-24T07:41:36.281Z,759.38
2018-07-24T07:42:36.262Z,759.38
2018-07-24T07:43:36.274Z,759.38
2018-07-24T07:44:36.240Z,765.00
2018-07-24T07:45:36.230Z,765.00
2018-07-24T07:46:36.230Z,770.62
2018-07-24T07:47:36.201Z,770.62
2018-07-24T07:48:36.229Z,776.25
2018-07-24T07:49:36.183Z,781.88
2018-07-24T07:50:36.172Z,781.88
2018-07-24T07:51:36.244Z,793.12
2018-07-24T07:52:36.203Z,793.12
2018-07-24T07:53:36.146Z,810.00
2018-07-24T07:54:36.124Z,810.00
2018-07-24T07:55:36.113Z,815.62
2018-07-24T07:56:36.102Z,826.88
2018-07-24T07:57:36.099Z,855.00
2018-07-24T07:58:36.094Z,1158.75
2018-07-24T07:59:36.071Z,1181.25
2018-07-24T08:00:36.067Z,883.12
2018-07-24T08:01:36.047Z,866.25
2018-07-24T08:02:36.097Z,871.88
2018-07-24T08:03:36.037Z,883.12
2018-07-24T08:04:36.018Z,956.25
2018-07-24T08:05:36.010Z,2266.88
2018-07-24T08:06:35.993Z,3735.00
2018-07-24T08:07:35.983Z,3802.50
2018-07-24T08:08:35.984Z,3841.88
2018-07-24T08:09:35.960Z,3847.50
2018-07-24T08:10:35.949Z,3836.25
2018-07-24T08:11:35.942Z,3836.25
2018-07-24T08:12:35.929Z,3858.75
2018-07-24T08:13:35.927Z,3920.62
2018-07-24T08:14:35.915Z,3920.62
2018-07-24T08:15:35.896Z,3943.12
2018-07-24T08:16:35.883Z,3982.50
2018-07-24T08:17:35.874Z,3971.25
2018-07-24T08:18:35.880Z,3965.62
2018-07-24T08:19:35.852Z,3999.38
2018-07-24T08:20:35.842Z,4038.75
2018-07-24T08:21:35.828Z,4061.25
2018-07-24T08:22:35.818Z,4083.75
2018-07-24T08:23:35.808Z,4055.62
2018-07-24T08:24:35.807Z,4078.12
2018-07-24T08:25:35.787Z,4134.38
2018-07-24T08:26:35.773Z,4134.38
2018-07-24T08:27:35.769Z,4173.75
2018-07-24T08:28:35.753Z,4201.88
2018-07-24T08:29:35.759Z,4201.88
2018-07-24T08:30:35.730Z,4235.62
2018-07-24T08:31:35.719Z,4185.00
2018-07-24T08:32:35.709Z,4190.62
2018-07-24T08:33:35.757Z,4235.62
2018-07-24T08:34:35.701Z,4291.88
2018-07-24T08:35:35.675Z,4291.88
2018-07-24T08:36:35.671Z,4269.38
2018-07-24T08:37:35.659Z,4336.88
2018-07-24T08:38:35.647Z,4359.38
2018-07-24T08:39:35.642Z,4336.88
2018-07-24T08:40:35.621Z,4381.88
2018-07-24T08:41:35.609Z,4488.75
2018-07-24T08:42:35.598Z,4477.50
2018-07-24T08:43:35.588Z,4477.50
2018-07-24T08:44:35.591Z,4516.88
2018-07-24T08:45:35.578Z,4528.12
2018-07-24T08:46:35.555Z,4550.62
2018-07-24T08:47:35.547Z,4567.50
2018-07-24T08:48:35.536Z,4578.75
2018-07-24T08:49:35.537Z,4578.75
2018-07-24T08:50:35.511Z,4696.88
2018-07-24T08:51:35.503Z,4966.88
2018-07-24T08:52:35.516Z,5248.12
2018-07-24T08:53:35.764Z,5360.62
2018-07-24T08:54:35.716Z,5416.88
2018-07-24T08:55:35.731Z,5416.88
2018-07-24T08:56:35.446Z,5439.38
2018-07-24T08:57:35.494Z,5473.12
2018-07-24T08:58:35.421Z,5484.38
2018-07-24T08:59:35.426Z,5495.62
2018-07-24T09:00:35.404Z,5490.00
2018-07-24T09:01:35.397Z,5490.00
2018-07-24T09:02:35.378Z,5495.62
2018-07-24T09:03:35.426Z,5529.38
2018-07-24T09:04:35.375Z,5596.88
2018-07-24T09:05:35.353Z,5613.75
2018-07-24T09:06:35.336Z,5647.50
2018-07-24T09:07:35.324Z,5715.00
2018-07-24T09:08:35.314Z,5636.25
2018-07-24T09:09:35.303Z,5754.38
2018-07-24T09:10:35.306Z,5844.38
2018-07-24T09:11:35.280Z,6041.25
2018-07-24T09:12:35.272Z,6058.12
2018-07-24T09:13:35.258Z,6108.75
2018-07-24T09:14:35.248Z,5928.75
2018-07-24T09:15:35.330Z,5866.88
2018-07-24T09:16:35.227Z,5760.00
2018-07-24T09:17:35.220Z,5821.88
2018-07-24T09:18:35.208Z,5765.62
2018-07-24T09:19:35.197Z,5844.38
2018-07-24T09:20:35.194Z,5917.50
2018-07-24T09:21:35.173Z,6030.00
2018-07-24T09:22:35.158Z,6108.75
2018-07-24T09:23:35.151Z,6035.62
2018-07-24T09:24:35.140Z,6046.88
2018-07-24T09:25:35.140Z,6108.75
2018-07-24T09:26:35.117Z,6333.75
2018-07-24T09:27:35.113Z,6300.00
2018-07-24T09:28:35.098Z,6187.50
2018-07-24T09:29:35.082Z,6097.50
2018-07-24T09:30:35.138Z,6080.62
2018-07-24T09:31:35.060Z,6232.50
2018-07-24T09:32:35.052Z,6378.75
2018-07-24T09:33:35.042Z,6418.12
2018-07-24T09:34:35.032Z,6665.62
2018-07-24T09:35:35.037Z,6811.88
2018-07-24T09:36:35.007Z,6648.75
2018-07-24T09:37:34.995Z,6727.50
2018-07-24T09:38:34.985Z,7087.50
2018-07-24T09:39:34.980Z,6862.50
2018-07-24T09:40:35.025Z,6783.75
2018-07-24T09:41:34.952Z,6868.12
2018-07-24T09:42:34.941Z,6480.00
2018-07-24T09:43:34.932Z,5782.50
2018-07-24T09:44:34.923Z,5765.62
2018-07-24T09:45:34.918Z,5911.88
2018-07-24T09:46:34.898Z,6733.12
2018-07-24T09:47:34.889Z,6631.88
2018-07-24T09:48:34.876Z,6007.50
2018-07-24T09:49:34.868Z,5833.12
2018-07-24T09:50:34.891Z,5608.12
2018-07-24T09:51:34.840Z,5068.12
2018-07-24T09:52:34.833Z,4702.50
2018-07-24T09:53:34.821Z,4719.38
2018-07-24T09:54:34.808Z,4657.50
2018-07-24T09:55:34.815Z,4584.38
2018-07-24T09:56:34.792Z,4601.25
2018-07-24T09:57:34.776Z,4651.88
2018-07-24T09:58:34.772Z,4550.62
2018-07-24T09:59:34.756Z,4595.62
2018-07-24T10:00:34.755Z,4612.50
2018-07-24T10:01:34.746Z,4561.88
2018-07-24T10:02:34.723Z,4590.00
2018-07-24T10:03:34.714Z,4550.62
2018-07-24T10:04:34.701Z,4573.12
2018-07-24T10:05:34.694Z,4522.50
2018-07-24T10:06:34.690Z,4488.75
2018-07-24T10:07:34.674Z,4500.00
2018-07-24T10:08:34.659Z,4505.62
2018-07-24T10:09:34.644Z,4438.12
2018-07-24T10:10:34.634Z,2666.25
2018-07-24T10:11:34.633Z,630.00
2018-07-24T10:12:34.625Z,438.75
2018-07-24T10:13:34.601Z,388.12
2018-07-24T10:14:34.589Z,360.00
2018-07-24T10:15:34.581Z,354.38
2018-07-24T10:16:34.643Z,326.25
2018-07-24T10:17:34.558Z,315.00
2018-07-24T10:18:34.547Z,303.75
2018-07-24T10:19:34.538Z,303.75
2018-07-24T10:20:34.527Z,286.88
2018-07-24T10:21:34.522Z,281.25
2018-07-24T10:22:34.508Z,275.62
2018-07-24T10:23:34.490Z,275.62
2018-07-24T10:24:34.484Z,270.00
2018-07-24T10:25:34.472Z,264.38
2018-07-24T10:26:34.580Z,264.38
2018-07-24T10:27:34.449Z,258.75
2018-07-24T10:28:34.440Z,258.75
2018-07-24T10:29:34.426Z,253.12
2018-07-24T10:30:34.418Z,253.12
2018-07-24T10:31:34.418Z,253.12
2018-07-24T10:32:34.395Z,247.50
2018-07-24T10:33:34.384Z,247.50
2018-07-24T10:34:34.371Z,247.50
2018-07-24T10:35:34.375Z,247.50
2018-07-24T10:36:34.448Z,247.50
2018-07-24T10:37:34.338Z,241.88
2018-07-24T10:38:34.326Z,241.88
2018-07-24T10:39:34.315Z,241.88
2018-07-24T10:40:34.306Z,241.88
2018-07-24T10:41:34.294Z,241.88
2018-07-24T10:42:34.291Z,241.88
2018-07-24T10:43:34.272Z,236.25
2018-07-24T10:44:34.270Z,236.25
2018-07-24T10:45:34.344Z,236.25
2018-07-24T10:46:34.240Z,236.25
2018-07-24T10:47:34.239Z,236.25
2018-07-24T10:48:34.218Z,236.25
2018-07-24T10:49:34.211Z,236.25
2018-07-24T10:50:34.197Z,236.25
2018-07-24T10:51:34.185Z,236.25
2018-07-24T10:52:34.208Z,230.62
2018-07-24T10:53:34.166Z,230.62
2018-07-24T10:54:34.152Z,230.62
2018-07-24T10:55:34.144Z,225.00
2018-07-24T10:56:34.138Z,225.00
2018-07-24T10:57:34.140Z,225.00
2018-07-24T10:58:34.118Z,219.38
2018-07-24T10:59:34.097Z,219.38
2018-07-24T11:00:34.085Z,219.38
2018-07-24T11:01:34.074Z,219.38
2018-07-24T11:02:34.073Z,213.75
2018-07-24T11:03:34.052Z,213.75
2018-07-24T11:04:34.047Z,213.75
2018-07-24T11:05:34.031Z,213.75
2018-07-24T11:06:34.021Z,213.75
2018-07-24T11:07:34.019Z,208.12
2018-07-24T11:08:34.224Z,208.12
2018-07-24T11:09:33.986Z,208.12
2018-07-24T11:10:34.064Z,208.12
2018-07-24T11:11:33.963Z,208.12
2018-07-24T11:12:34.230Z,208.12
2018-07-24T11:13:33.945Z,208.12
2018-07-24T11:14:33.933Z,208.12
2018-07-24T11:15:33.938Z,208.12
2018-07-24T11:16:33.920Z,208.12
2018-07-24T11:17:33.929Z,208.12
2018-07-24T11:18:33.888Z,208.12
2018-07-24T11:19:33.880Z,208.12
2018-07-24T11:20:33.868Z,202.50
2018-07-24T11:21:33.865Z,202.50
2018-07-24T11:22:33.983Z,202.50
2018-07-24T11:23:33.972Z,202.50
2018-07-24T11:24:33.825Z,202.50
2018-07-24T11:25:33.813Z,196.88
2018-07-24T11:26:33.799Z,196.88
2018-07-24T11:27:33.795Z,196.88
2018-07-24T11:28:33.794Z,196.88
2018-07-24T11:29:33.770Z,191.25
2018-07-24T11:30:33.758Z,191.25
2018-07-24T11:31:33.747Z,191.25
2018-07-24T11:32:33.734Z,191.25
2018-07-24T11:33:33.912Z,185.62
2018-07-24T11:34:33.714Z,185.62
2018-07-24T11:35:33.779Z,185.62
2018-07-24T11:36:33.692Z,185.62
2018-07-24T11:37:33.685Z,185.62
2018-07-24T11:38:33.692Z,185.62
2018-07-24T11:39:33.672Z,180.00
2018-07-24T11:40:33.647Z,180.00
2018-07-24T11:41:33.637Z,180.00
2018-07-24T11:42:33.632Z,180.00
2018-07-24T11:43:33.633Z,174.38
2018-07-24T11:44:33.605Z,174.38
2018-07-24T11:45:33.592Z,174.38
2018-07-24T11:46:33.647Z,168.75
2018-07-24T11:47:33.573Z,168.75
2018-07-24T11:48:33.575Z,168.75
2018-07-24T11:49:33.549Z,163.12
2018-07-24T11:50:33.729Z,163.12
2018-07-24T11:51:33.575Z,163.12
2018-07-24T11:52:33.518Z,163.12
2018-07-24T11:53:33.524Z,157.50
2018-07-24T11:54:33.498Z,157.50
2018-07-24T11:55:33.489Z,157.50
2018-07-24T11:56:33.474Z,157.50
2018-07-24T11:57:33.481Z,151.88
2018-07-24T11:58:33.500Z,151.88
2018-07-24T11:59:33.468Z,151.88
2018-07-24T12:00:33.436Z,151.88
2018-07-24T12:01:33.420Z,151.88
2018-07-24T12:02:33.410Z,151.88
2018-07-24T12:03:33.443Z,151.88
2018-07-24T12:04:33.399Z,151.88
2018-07-24T12:05:33.375Z,151.88
2018-07-24T12:06:33.366Z,146.25
2018-07-24T12:07:33.353Z,151.88
2018-07-24T12:08:33.342Z,151.88
2018-07-24T12:09:33.354Z,151.88
2018-07-24T12:10:33.326Z,151.88
2018-07-24T12:11:33.321Z,151.88
2018-07-24T12:12:33.302Z,151.88
2018-07-24T12:13:33.293Z,151.88
2018-07-24T12:14:33.338Z,146.25
2018-07-24T12:15:33.274Z,146.25
2018-07-24T12:16:33.256Z,146.25
2018-07-24T12:17:33.244Z,146.25
2018-07-24T12:18:33.232Z,146.25
2018-07-24T12:19:33.239Z,146.25
2018-07-24T12:20:33.212Z,146.25
2018-07-24T12:21:33.200Z,146.25
2018-07-24T12:22:33.190Z,146.25
2018-07-24T12:23:33.179Z,146.25
2018-07-24T12:24:33.189Z,146.25
2018-07-24T12:25:33.157Z,146.25
2018-07-24T12:26:33.148Z,146.25
2018-07-24T12:27:33.135Z,140.62
2018-07-24T12:28:33.124Z,140.62
2018-07-24T12:29:33.130Z,140.62
2018-07-24T12:30:33.101Z,140.62
2018-07-24T12:31:33.093Z,140.62
2018-07-24T12:32:33.085Z,140.62
2018-07-24T12:33:33.077Z,140.62
2018-07-24T12:34:33.060Z,140.62
2018-07-24T12:35:33.065Z,135.00
2018-07-24T12:36:33.040Z,135.00
2018-07-24T12:37:33.028Z,135.00
2018-07-24T12:38:33.017Z,135.00
2018-07-24T12:39:33.005Z,135.00
2018-07-24T12:40:33.007Z,135.00
2018-07-24T12:41:32.985Z,135.00
2018-07-24T12:42:32.972Z,135.00
2018-07-24T12:43:32.991Z,135.00
2018-07-24T12:44:32.959Z,135.00
2018-07-24T12:45:32.950Z,135.00
2018-07-24T12:46:33.055Z,135.00
2018-07-24T12:47:32.916Z,135.00
2018-07-24T12:48:32.905Z,135.00
2018-07-24T12:49:32.895Z,129.38
2018-07-24T12:50:32.896Z,129.38
2018-07-24T12:51:32.879Z,129.38
2018-07-24T12:52:32.936Z,129.38
2018-07-24T12:53:32.851Z,129.38
2018-07-24T12:54:32.840Z,129.38
2018-07-24T12:55:32.855Z,129.38
2018-07-24T12:56:32.820Z,129.38
2018-07-24T12:57:32.813Z,129.38
2018-07-24T12:58:32.796Z,129.38
2018-07-24T12:59:32.784Z,129.38
2018-07-24T13:00:32.803Z,129.38
2018-07-24T13:01:32.765Z,129.38
2018-07-24T13:02:32.753Z,129.38
2018-07-24T13:03:32.753Z,129.38
2018-07-24T13:04:32.799Z,129.38
2018-07-24T13:05:32.719Z,123.75
2018-07-24T13:06:32.723Z,123.75
2018-07-24T13:07:32.706Z,123.75
2018-07-24T13:08:32.691Z,123.75
2018-07-24T13:09:32.675Z,123.75
2018-07-24T13:10:32.669Z,123.75
2018-07-24T13:11:32.666Z,123.75
2018-07-24T13:12:32.645Z,123.75
2018-07-24T13:13:32.631Z,123.75
2018-07-24T13:14:32.621Z,123.75
2018-07-24T13:15:32.617Z,123.75
2018-07-24T13:16:32.633Z,123.75
2018-07-24T13:17:32.590Z,123.75
2018-07-24T13:18:32.581Z,123.75
2018-07-24T13:19:32.642Z,123.75
2018-07-24T13:20:32.555Z,123.75
2018-07-24T13:21:32.592Z,118.12
2018-07-24T13:22:32.534Z,118.12
2018-07-24T13:23:32.522Z,118.12
2018-07-24T13:24:32.519Z,118.12
2018-07-24T13:25:32.506Z,118.12
2018-07-24T13:26:32.492Z,118.12
2018-07-24T13:27:32.495Z,118.12
2018-07-24T13:28:32.470Z,118.12
2018-07-24T13:29:32.457Z,118.12
2018-07-24T13:30:32.447Z,118.12
2018-07-24T13:31:32.438Z,118.12
2018-07-24T13:32:32.433Z,118.12
2018-07-24T13:33:32.414Z,118.12
2018-07-24T13:34:32.403Z,118.12
2018-07-24T13:35:32.390Z,118.12
2018-07-24T13:36:32.384Z,118.12
2018-07-24T13:37:32.432Z,118.12
2018-07-24T13:38:32.357Z,118.12
2018-07-24T13:39:32.347Z,118.12
2018-07-24T13:40:32.340Z,118.12
2018-07-24T13:41:32.327Z,118.12
2018-07-24T13:42:32.326Z,118.12
2018-07-24T13:43:32.304Z,118.12
2018-07-24T13:44:32.296Z,118.12
2018-07-24T13:45:32.282Z,118.12
2018-07-24T13:46:32.274Z,118.12
2018-07-24T13:47:32.280Z,118.12
2018-07-24T13:48:32.248Z,118.12
2018-07-24T13:49:32.238Z,118.12
2018-07-24T13:50:32.230Z,118.12
2018-07-24T13:51:32.219Z,118.12
2018-07-24T13:52:32.209Z,118.12
2018-07-24T13:53:32.210Z,112.50
2018-07-24T13:54:32.182Z,112.50
2018-07-24T13:55:32.174Z,112.50
2018-07-24T13:56:32.161Z,112.50
2018-07-24T13:57:32.150Z,112.50
2018-07-24T13:58:32.167Z,112.50
2018-07-24T13:59:32.129Z,112.50
2018-07-24T14:00:32.117Z,112.50
2018-07-24T14:01:32.108Z,112.50
2018-07-24T14:02:32.097Z,112.50
2018-07-24T14:03:32.098Z,112.50
2018-07-24T14:04:32.076Z,112.50
2018-07-24T14:05:32.076Z,112.50
2018-07-24T14:06:32.051Z,112.50
2018-07-24T14:07:32.043Z,112.50
2018-07-24T14:08:32.074Z,112.50
2018-07-24T14:09:32.018Z,112.50
2018-07-24T14:10:32.007Z,112.50
2018-07-24T14:11:32.004Z,106.88
2018-07-24T14:12:31.987Z,106.88
2018-07-24T14:13:31.984Z,106.88
2018-07-24T14:14:31.976Z,106.88
2018-07-24T14:15:31.951Z,112.50
2018-07-24T14:16:31.941Z,112.50
2018-07-24T14:17:31.929Z,112.50
2018-07-24T14:18:31.918Z,112.50
2018-07-24T14:19:31.921Z,112.50
2018-07-24T14:20:31.900Z,106.88
2018-07-24T14:21:31.889Z,106.88
2018-07-24T14:22:31.878Z,106.88
2018-07-24T14:23:31.869Z,106.88
2018-07-24T14:24:31.864Z,106.88
2018-07-24T14:25:31.845Z,106.88
2018-07-24T14:26:31.832Z,106.88
2018-07-24T14:27:31.821Z,106.88
2018-07-24T14:28:31.810Z,106.88
2018-07-24T14:29:31.816Z,101.25
2018-07-24T14:30:31.793Z,101.25
2018-07-24T14:31:31.779Z,101.25
2018-07-24T14:32:31.765Z,101.25
2018-07-24T14:33:31.757Z,101.25
2018-07-24T14:34:31.746Z,101.25
2018-07-24T14:35:31.753Z,101.25
2018-07-24T14:36:31.722Z,101.25
2018-07-24T14:37:31.712Z,101.25
2018-07-24T14:38:31.700Z,101.25
2018-07-24T14:39:31.689Z,101.25
2018-07-24T14:40:32.120Z,101.25
2018-07-24T14:41:31.669Z,101.25
2018-07-24T14:42:31.658Z,101.25
2018-07-24T14:43:31.651Z,101.25
2018-07-24T14:44:31.641Z,101.25
2018-07-24T14:45:31.634Z,101.25
2018-07-24T14:46:31.660Z,101.25
2018-07-24T14:47:31.722Z,101.25
2018-07-24T14:48:31.593Z,95.62
2018-07-24T14:49:31.583Z,95.62
2018-07-24T14:50:31.584Z,95.62
2018-07-24T14:51:31.558Z,95.62
2018-07-24T14:52:31.546Z,95.62
2018-07-24T14:53:31.571Z,101.25
2018-07-24T14:54:31.530Z,101.25
2018-07-24T14:55:31.526Z,101.25
2018-07-24T14:56:31.503Z,101.25
2018-07-24T14:57:31.494Z,101.25
2018-07-24T14:58:31.493Z,101.25
2018-07-24T14:59:31.472Z,106.88
2018-07-24T15:00:31.488Z,106.88
2018-07-24T15:01:31.448Z,112.50
2018-07-24T15:02:31.441Z,112.50
2018-07-24T15:03:31.428Z,112.50
2018-07-24T15:04:31.416Z,112.50
2018-07-24T15:05:31.406Z,112.50
2018-07-24T15:06:31.485Z,112.50
2018-07-24T15:07:31.382Z,101.25
2018-07-24T15:08:31.371Z,101.25
2018-07-24T15:09:31.358Z,95.62
2018-07-24T15:10:31.351Z,95.62
2018-07-24T15:11:31.351Z,95.62
2018-07-24T15:12:31.327Z,95.62
2018-07-24T15:13:31.319Z,95.62
2018-07-24T15:14:31.311Z,95.62
2018-07-24T15:15:31.295Z,95.62
2018-07-24T15:16:31.294Z,95.62
2018-07-24T15:17:31.275Z,95.62
2018-07-24T15:18:31.264Z,95.62
2018-07-24T15:19:31.256Z,95.62
2018-07-24T15:20:31.240Z,95.62
2018-07-24T15:21:31.250Z,95.62
2018-07-24T15:22:31.218Z,90.00
2018-07-24T15:23:31.207Z,90.00
2018-07-24T15:24:31.196Z,90.00
2018-07-24T15:25:31.186Z,90.00
2018-07-24T15:26:31.173Z,90.00
2018-07-24T15:27:31.176Z,90.00
2018-07-24T15:28:31.185Z,84.38
2018-07-24T15:29:31.160Z,90.00
2018-07-24T15:30:31.129Z,90.00
2018-07-24T15:31:31.147Z,90.00
2018-07-24T15:32:31.120Z,90.00
2018-07-24T15:33:31.097Z,90.00
2018-07-24T15:34:31.261Z,90.00
2018-07-24T15:35:31.074Z,90.00
2018-07-24T15:36:31.065Z,90.00
2018-07-24T15:37:31.085Z,90.00
2018-07-24T15:38:31.054Z,90.00
2018-07-24T15:39:31.029Z,90.00
2018-07-24T15:40:31.020Z,90.00
2018-07-24T15:41:31.006Z,90.00
2018-07-24T15:42:30.996Z,90.00
2018-07-24T15:43:30.997Z,90.00
2018-07-24T15:44:30.975Z,90.00
2018-07-24T15:45:30.965Z,90.00
2018-07-24T15:46:30.955Z,84.38
2018-07-24T15:47:30.957Z,84.38
2018-07-24T15:48:30.944Z,84.38
2018-07-24T15:49:30.923Z,84.38
2018-07-24T15:50:30.908Z,84.38
2018-07-24T15:51:30.897Z,84.38
2018-07-24T15:52:30.889Z,84.38
2018-07-24T15:53:30.892Z,84.38
2018-07-24T15:54:30.877Z,84.38
2018-07-24T15:55:30.857Z,84.38
2018-07-24T15:56:30.842Z,84.38
2018-07-24T15:57:30.831Z,84.38
2018-07-24T15:58:30.835Z,84.38
2018-07-24T15:59:30.814Z,78.75
2018-07-24T16:00:30.800Z,78.75
2018-07-24T16:01:30.785Z,78.75
2018-07-24T16:02:30.816Z,78.75
2018-07-24T16:03:30.799Z,78.75
2018-07-24T16:04:30.753Z,78.75
2018-07-24T16:05:30.746Z,78.75
2018-07-24T16:06:30.733Z,78.75
2018-07-24T16:07:30.723Z,78.75
2018-07-24T16:08:30.712Z,78.75
2018-07-24T16:09:30.709Z,78.75
2018-07-24T16:10:30.692Z,78.75
2018-07-24T16:11:30.676Z,78.75
2018-07-24T16:12:30.665Z,78.75
2018-07-24T16:13:30.653Z,78.75
2018-07-24T16:14:30.653Z,78.75
2018-07-24T16:15:30.687Z,78.75
2018-07-24T16:16:30.623Z,78.75
2018-07-24T16:17:30.613Z,78.75
2018-07-24T16:18:30.600Z,78.75
2018-07-24T16:19:30.598Z,78.75
2018-07-24T16:20:30.600Z,78.75
2018-07-24T16:21:30.564Z,78.75
2018-07-24T16:22:30.557Z,78.75
2018-07-24T16:23:30.543Z,78.75
2018-07-24T16:24:30.546Z,73.12
2018-07-24T16:25:30.523Z,73.12
2018-07-24T16:26:30.606Z,73.12
2018-07-24T16:27:30.502Z,73.12
2018-07-24T16:28:30.488Z,73.12